Chester, NE (68327)

1:09 AM CDT on August 30, 2015 (GMT -0500)
Hebron Municipal | | Change Station
CLOSE
Current Station
Airport
Location: Hebron,
Elevation: 1467 ft
Nearby Weather Stations

Elev 1467 ft 40.15 °N, 97.59 °W | Updated 14 minutes ago

Clear
Clear
58 °F
Feels Like 58 °F
N
0
Wind Variable Wind from North

Today
High -- | Low -- °F
--% Chance of Precip.
Yesterday
High -- | Low -- °F
Precip. -- in
6:56 AM 8:05 PM
Full, 100% visible
Pressure 30.07 in
Visibility 1.2 miles
Clouds
Dew Point 56 °F
Humidity 93%
Rainfall 0.00 in
Snow Depth Not available.
UV Not available.
Pollen 9.40 out of 12
Air Quality Not available.
Flu Activity Not available.
METAR KHJH 300555Z AUTO 00000KT 1 1/4SM BR VV007 14/13 A3007 RMK AO2 T01440133 10246 20144 402580144
Pressure 30.07 in
Visibility 1.2 miles
Clouds
Dew Point 56 °F
Humidity 93%
Rainfall 0.00 in
Snow Depth Not available.
UV Not available.
Pollen 9.40 out of 12
Air Quality Not available.
Flu Activity Not available.
METAR KHJH 300555Z AUTO 00000KT 1 1/4SM BR VV007 14/13 A3007 RMK AO2 T01440133 10246 20144 402580144

10-Day Weather Forecast

×

Almanac

Astronomy

Aug. 30, 2015 Rise Set
Actual Time
Civil Twilight
Nautical Twilight
Astronomical Twilight
Moon
Length of Visible Light
Length of Day
Tomorrow will be .
, % of the Moon is Illuminated

Today's Extremes

State Highs State Lows

Community

WunderPhotos

Upload Photos

1,850,897 photos uploaded!

WunderBlogs® & News

Nearby

Air Quality

  Air Quality AQ Index Pollutant
Not available.

Snow Depth

Station Depth Elevation

Earthquake Activity

City Distance Mag. Time & Date
Minimum magnitude displayed is 2.5.

Coastal Water Temperatures

Place Temperature

Stations

Nearby Weather Stations

Station Location Temp. Windchill Dew Point Humidity Wind Precip. Elev Updated Type